createdAt,value
2023-04-22T00:00:30.599Z,49.59
2023-04-22T00:03:16.809Z,49.81
2023-04-22T00:05:45.223Z,49.94
2023-04-22T00:08:14.198Z,49.70
2023-04-22T00:10:42.276Z,49.93
2023-04-22T00:13:10.599Z,50.19
2023-04-22T00:15:39.044Z,50.24
2023-04-22T00:18:07.449Z,50.55
2023-04-22T00:20:36.486Z,50.61
2023-04-22T00:23:04.576Z,50.68
2023-04-22T00:25:33.586Z,50.80
2023-04-22T00:28:01.737Z,50.72
2023-04-22T00:30:29.881Z,50.80
2023-04-22T00:32:57.949Z,51.08
2023-04-22T00:35:26.139Z,50.89
2023-04-22T00:37:54.267Z,51.31
2023-04-22T00:40:22.456Z,51.33
2023-04-22T00:42:51.090Z,51.14
2023-04-22T00:45:20.053Z,50.97
2023-04-22T00:47:49.102Z,51.22
2023-04-22T00:50:17.494Z,51.19
2023-04-22T00:52:45.510Z,51.15
2023-04-22T00:55:13.609Z,51.05
2023-04-22T00:57:42.763Z,51.45
2023-04-22T01:00:12.105Z,51.30
2023-04-22T01:02:40.456Z,51.42
2023-04-22T01:05:09.780Z,51.31
2023-04-22T01:07:37.857Z,51.59
2023-04-22T01:10:06.613Z,51.59
2023-04-22T01:12:34.880Z,52.09
2023-04-22T01:15:05.065Z,52.25
2023-04-22T01:17:33.969Z,52.50
2023-04-22T01:20:04.441Z,52.87
2023-04-22T01:22:37.369Z,52.72
2023-04-22T01:25:05.874Z,53.13
2023-04-22T01:27:33.974Z,53.28
2023-04-22T01:30:02.292Z,53.30
2023-04-22T01:32:31.239Z,53.19
2023-04-22T01:34:59.596Z,53.36
2023-04-22T01:49:44.892Z,53.07
2023-04-22T01:52:13.257Z,52.52
2023-04-22T01:54:41.658Z,52.35
2023-04-22T01:57:14.186Z,52.37
2023-04-22T01:59:42.548Z,52.40
2023-04-22T02:02:10.846Z,52.38
2023-04-22T02:04:39.023Z,52.25
2023-04-22T02:07:07.077Z,52.19
2023-04-22T02:09:35.382Z,52.38
2023-04-22T02:12:03.509Z,52.33
2023-04-22T02:14:31.510Z,52.58
2023-04-22T02:16:59.589Z,52.92
2023-04-22T02:19:27.760Z,52.88
2023-04-22T02:21:56.146Z,53.08
2023-04-22T02:24:24.276Z,53.69
2023-04-22T02:26:52.422Z,53.90
2023-04-22T02:29:20.447Z,53.74
2023-04-22T02:31:48.793Z,54.33
2023-04-22T02:34:16.943Z,54.59
2023-04-22T02:36:44.950Z,54.72
2023-04-22T02:39:13.237Z,54.15
2023-04-22T02:41:41.316Z,54.29
2023-04-22T02:44:09.398Z,54.06
2023-04-22T02:46:37.696Z,54.19
2023-04-22T02:49:05.915Z,54.13
2023-04-22T02:51:34.005Z,54.04
2023-04-22T02:54:02.070Z,53.80
2023-04-22T02:56:30.169Z,53.90
2023-04-22T02:58:58.267Z,54.04
2023-04-22T03:01:26.599Z,54.31
2023-04-22T03:03:54.985Z,54.54
2023-04-22T03:06:23.298Z,54.38
2023-04-22T03:08:51.441Z,54.52
2023-04-22T03:11:19.487Z,54.63
2023-04-22T03:13:47.762Z,54.57
2023-04-22T03:16:17.478Z,54.81
2023-04-22T03:18:45.541Z,54.80
2023-04-22T03:21:13.589Z,54.63
2023-04-22T03:23:41.827Z,54.97
2023-04-22T03:26:09.891Z,54.84
2023-04-22T03:28:37.858Z,54.93
2023-04-22T03:31:06.121Z,55.13
2023-04-22T03:33:34.211Z,55.19
2023-04-22T03:36:02.227Z,55.38
2023-04-22T03:38:30.642Z,55.38
2023-04-22T03:40:58.665Z,56.05
2023-04-22T03:43:26.698Z,56.32
2023-04-22T03:45:54.802Z,56.33
2023-04-22T03:48:22.925Z,56.34
2023-04-22T03:50:51.104Z,56.40
2023-04-22T03:53:19.219Z,56.16
2023-04-22T03:55:47.395Z,55.91
2023-04-22T03:58:15.764Z,55.67
2023-04-22T04:00:44.357Z,55.78
2023-04-22T04:03:12.559Z,55.79
2023-04-22T04:05:40.833Z,55.55
2023-04-22T04:08:09.110Z,55.72
2023-04-22T04:10:38.145Z,56.02
2023-04-22T04:13:06.495Z,56.18
2023-04-22T04:15:36.606Z,56.50
2023-04-22T04:18:04.730Z,56.16
2023-04-22T04:20:32.816Z,56.17
2023-04-22T04:23:00.974Z,56.51
2023-04-22T04:25:37.737Z,56.50
2023-04-22T04:28:09.566Z,56.96
2023-04-22T04:30:38.244Z,57.14
2023-04-22T04:33:07.399Z,57.60
2023-04-22T04:35:38.019Z,57.89
2023-04-22T04:38:06.333Z,58.77
2023-04-22T04:40:35.077Z,58.36
2023-04-22T04:43:04.843Z,59.46
2023-04-22T04:45:33.019Z,58.66
2023-04-22T04:48:02.761Z,57.95
2023-04-22T04:50:31.633Z,58.65
2023-04-22T04:52:59.756Z,58.00
2023-04-22T04:55:27.804Z,58.02
2023-04-22T04:57:55.847Z,57.23
2023-04-22T05:00:24.217Z,57.27
2023-04-22T05:02:52.456Z,56.53
2023-04-22T05:05:20.731Z,56.14
2023-04-22T05:07:48.888Z,55.99
2023-04-22T05:10:17.215Z,55.88
2023-04-22T05:12:47.836Z,55.68
2023-04-22T05:15:16.004Z,55.60
2023-04-22T05:17:44.196Z,55.28
2023-04-22T05:20:12.328Z,55.23
2023-04-22T05:22:44.981Z,55.17
2023-04-22T05:25:13.128Z,55.34
2023-04-22T05:27:42.157Z,55.02
2023-04-22T05:30:11.008Z,54.93
2023-04-22T05:32:39.182Z,54.97
2023-04-22T05:35:07.834Z,54.54
2023-04-22T05:37:36.238Z,54.29
2023-04-22T05:40:04.763Z,54.22
2023-04-22T05:42:32.770Z,54.32
2023-04-22T05:45:00.838Z,53.70
2023-04-22T05:47:30.332Z,54.20
2023-04-22T05:49:58.388Z,53.58
2023-04-22T05:52:26.526Z,53.77
2023-04-22T05:54:54.760Z,54.06
2023-04-22T05:57:22.911Z,54.57
2023-04-22T05:59:51.008Z,53.84
2023-04-22T06:02:19.243Z,53.38
2023-04-22T06:04:47.768Z,52.84
2023-04-22T06:07:16.153Z,52.56
2023-04-22T06:09:44.307Z,52.41
2023-04-22T06:12:12.385Z,52.33
2023-04-22T06:14:43.755Z,52.28
2023-04-22T06:17:11.781Z,51.84
2023-04-22T06:19:40.052Z,51.96
2023-04-22T06:22:08.665Z,51.38
2023-04-22T06:24:36.738Z,51.44
2023-04-22T06:27:04.816Z,51.38
2023-04-22T06:29:33.780Z,51.30
2023-04-22T06:32:03.508Z,51.26
2023-04-22T06:34:32.734Z,50.91
2023-04-22T06:37:00.883Z,50.68
2023-04-22T06:39:29.096Z,50.46
2023-04-22T06:41:57.111Z,50.02
2023-04-22T06:44:25.971Z,49.82
2023-04-22T06:46:55.818Z,49.51
2023-04-22T06:49:25.638Z,49.31
2023-04-22T06:51:53.707Z,49.11
2023-04-22T06:54:21.829Z,48.66
2023-04-22T06:56:49.913Z,48.59
2023-04-22T06:59:18.223Z,48.20
2023-04-22T07:01:49.675Z,48.28
2023-04-22T07:04:17.995Z,48.04
2023-04-22T07:06:46.312Z,47.89
2023-04-22T07:09:14.471Z,47.88
2023-04-22T07:11:42.557Z,47.98
2023-04-22T07:14:10.736Z,47.70
2023-04-22T07:16:39.375Z,47.66
2023-04-22T07:19:07.731Z,47.22
2023-04-22T07:21:35.948Z,47.27
2023-04-22T07:24:04.328Z,47.42
2023-04-22T07:26:34.477Z,47.50
2023-04-22T07:29:02.760Z,47.40
2023-04-22T07:31:30.968Z,47.41
2023-04-22T07:33:59.114Z,47.27
2023-04-22T07:36:27.276Z,47.47
2023-04-22T07:38:55.653Z,47.61
2023-04-22T07:41:23.902Z,47.60
2023-04-22T07:43:52.108Z,47.61
2023-04-22T07:46:20.356Z,47.57
2023-04-22T07:48:48.701Z,47.54
2023-04-22T07:51:17.358Z,47.29
2023-04-22T07:53:45.751Z,47.16
2023-04-22T07:56:13.982Z,47.15
2023-04-22T07:58:42.143Z,47.13
2023-04-22T08:01:10.355Z,46.85
2023-04-22T08:03:38.628Z,46.88
2023-04-22T08:06:07.230Z,46.92
2023-04-22T08:08:35.382Z,46.76
2023-04-22T08:14:04.148Z,46.40
2023-04-22T08:16:32.437Z,46.27
2023-04-22T08:19:00.538Z,46.12
2023-04-22T08:21:28.702Z,45.94
2023-04-22T08:23:57.744Z,46.00
2023-04-22T08:26:26.367Z,45.98
2023-04-22T08:28:54.879Z,45.89
2023-04-22T08:31:23.092Z,45.84
2023-04-22T08:33:51.485Z,45.69
2023-04-22T08:36:22.984Z,45.64
2023-04-22T08:38:51.369Z,45.57
2023-04-22T08:41:19.480Z,44.97
2023-04-22T08:43:48.119Z,44.95
2023-04-22T08:46:20.273Z,45.16
2023-04-22T08:48:48.974Z,45.23
2023-04-22T08:51:22.897Z,45.12
2023-04-22T08:53:51.172Z,44.92
2023-04-22T08:56:20.864Z,45.01
2023-04-22T08:58:49.731Z,45.14
2023-04-22T09:01:18.764Z,45.20
2023-04-22T09:03:49.370Z,44.81
2023-04-22T09:06:20.060Z,44.46
2023-04-22T09:08:48.392Z,44.75
2023-04-22T09:11:17.885Z,44.76
2023-04-22T09:13:47.677Z,43.36
2023-04-22T09:16:15.933Z,43.62
2023-04-22T09:18:46.006Z,43.55
2023-04-22T09:21:14.377Z,43.57
2023-04-22T09:23:53.352Z,43.48
2023-04-22T09:26:23.616Z,43.35
2023-04-22T09:29:01.186Z,43.33
2023-04-22T09:31:29.398Z,43.04
2023-04-22T09:34:00.799Z,42.92
2023-04-22T09:36:30.439Z,43.00
2023-04-22T09:39:00.590Z,42.91
2023-04-22T09:41:34.382Z,42.19
2023-04-22T09:44:04.027Z,41.60
2023-04-22T09:46:34.021Z,41.76
2023-04-22T09:49:02.742Z,42.40
2023-04-22T09:51:30.921Z,42.26
2023-04-22T09:54:09.864Z,41.84
2023-04-22T09:56:53.796Z,40.35
2023-04-22T09:59:24.539Z,40.95
2023-04-22T10:01:55.153Z,41.72
2023-04-22T10:04:25.474Z,41.78
2023-04-22T10:06:54.586Z,41.24
2023-04-22T10:09:25.427Z,40.94
2023-04-22T10:11:55.626Z,40.60
2023-04-22T10:14:24.612Z,40.49
2023-04-22T10:16:57.139Z,40.31
2023-04-22T10:19:27.070Z,40.38
2023-04-22T10:22:01.424Z,40.69
2023-04-22T10:24:35.608Z,41.17
2023-04-22T10:27:08.674Z,41.10
2023-04-22T10:29:42.932Z,38.13
2023-04-22T10:32:11.744Z,39.09
2023-04-22T10:34:39.982Z,38.73
2023-04-22T10:37:11.792Z,39.70
2023-04-22T10:39:43.016Z,39.88
2023-04-22T10:42:12.890Z,39.79
2023-04-22T10:44:55.191Z,38.61
2023-04-22T10:47:28.843Z,39.27
2023-04-22T10:50:27.439Z,38.92
2023-04-22T10:53:03.212Z,39.70
2023-04-22T10:56:16.250Z,38.28
2023-04-22T10:58:52.484Z,37.65
2023-04-22T11:01:21.597Z,37.69
2023-04-22T11:03:52.030Z,37.01
2023-04-22T11:06:27.927Z,38.08
2023-04-22T11:09:14.187Z,38.85
2023-04-22T11:11:42.308Z,38.54
2023-04-22T11:14:11.483Z,38.66
2023-04-22T11:16:39.719Z,38.53
2023-04-22T11:19:08.278Z,38.33
2023-04-22T11:21:36.968Z,38.24
2023-04-22T11:24:06.332Z,37.81
2023-04-22T11:26:35.974Z,38.59
2023-04-22T11:29:04.138Z,38.54
2023-04-22T11:31:32.585Z,36.09
2023-04-22T11:34:00.725Z,37.15
2023-04-22T11:36:28.979Z,37.50
2023-04-22T11:38:57.383Z,35.82
2023-04-22T11:41:25.523Z,34.75
2023-04-22T11:43:55.050Z,36.10
2023-04-22T11:46:31.461Z,37.06
2023-04-22T11:49:13.732Z,37.76
2023-04-22T11:51:57.692Z,36.58
2023-04-22T11:54:33.723Z,36.07
2023-04-22T11:57:15.617Z,35.88
2023-04-22T11:59:44.204Z,35.22
2023-04-22T12:02:12.506Z,34.69
2023-04-22T12:04:41.593Z,34.23
2023-04-22T12:07:09.663Z,34.15
2023-04-22T12:09:39.718Z,34.53
2023-04-22T12:12:08.198Z,34.37
2023-04-22T12:14:36.645Z,35.84
2023-04-22T12:17:05.920Z,35.46
2023-04-22T12:19:34.009Z,35.32
2023-04-22T12:22:02.883Z,35.67
2023-04-22T12:24:31.237Z,35.82
2023-04-22T12:26:59.349Z,36.31
2023-04-22T12:29:32.829Z,36.77
2023-04-22T12:32:01.190Z,36.75
2023-04-22T12:34:29.399Z,36.24
2023-04-22T12:36:59.187Z,36.44
2023-04-22T12:39:27.247Z,36.13
2023-04-22T12:41:55.459Z,34.60
2023-04-22T12:44:25.142Z,35.50
2023-04-22T12:46:53.766Z,36.27
2023-04-22T12:49:21.956Z,36.21
2023-04-22T12:51:50.158Z,36.07
2023-04-22T12:54:23.893Z,36.00
2023-04-22T12:57:16.148Z,36.14
2023-04-22T12:59:47.473Z,35.69
2023-04-22T13:02:16.095Z,35.23
2023-04-22T13:04:44.500Z,34.74
2023-04-22T13:07:12.890Z,34.82
2023-04-22T13:09:47.135Z,35.37
2023-04-22T13:12:24.115Z,35.34
2023-04-22T13:14:52.460Z,32.82
2023-04-22T13:17:21.914Z,31.95
2023-04-22T13:19:51.150Z,32.55
2023-04-22T13:22:19.540Z,33.49
2023-04-22T13:24:47.798Z,33.05
2023-04-22T13:27:18.801Z,33.53
2023-04-22T13:29:48.289Z,34.16
2023-04-22T13:32:16.545Z,34.13
2023-04-22T13:34:46.948Z,34.56
2023-04-22T13:37:16.521Z,34.43
2023-04-22T13:39:46.321Z,34.27
2023-04-22T13:42:17.366Z,34.60
2023-04-22T13:44:45.902Z,34.45
2023-04-22T13:47:14.039Z,34.21
2023-04-22T13:49:42.313Z,34.02
2023-04-22T13:52:11.175Z,33.63
2023-04-22T13:54:39.862Z,33.35
2023-04-22T13:57:08.882Z,33.29
2023-04-22T13:59:38.929Z,33.26
2023-04-22T14:02:17.984Z,33.12
2023-04-22T14:04:47.499Z,32.80
2023-04-22T14:07:17.075Z,33.01
2023-04-22T14:10:08.013Z,33.09
2023-04-22T14:12:37.250Z,33.05
2023-04-22T14:15:07.312Z,33.05
2023-04-22T14:17:36.727Z,32.93
2023-04-22T14:20:08.668Z,32.82
2023-04-22T14:22:38.148Z,33.22
2023-04-22T14:25:13.307Z,32.59
2023-04-22T14:27:43.157Z,32.55
2023-04-22T14:30:12.263Z,32.41
2023-04-22T14:33:09.284Z,32.34
2023-04-22T14:35:38.954Z,32.53
2023-04-22T14:38:11.980Z,31.72
2023-04-22T14:41:00.407Z,32.36
2023-04-22T14:43:28.676Z,32.61
2023-04-22T14:46:01.936Z,32.54
2023-04-22T14:48:32.425Z,32.09
2023-04-22T14:51:01.614Z,32.19
2023-04-22T14:53:32.972Z,32.28
2023-04-22T14:56:01.553Z,31.81
2023-04-22T14:58:31.963Z,31.82
2023-04-22T15:01:00.576Z,31.82
2023-04-22T15:03:28.944Z,31.96
2023-04-22T15:05:58.079Z,32.40
2023-04-22T15:08:26.616Z,32.42
2023-04-22T15:10:54.785Z,32.55
2023-04-22T15:13:27.315Z,32.54
2023-04-22T15:15:55.713Z,32.23
2023-04-22T15:18:25.065Z,32.41
2023-04-22T15:20:53.159Z,32.39
2023-04-22T15:23:21.352Z,32.35
2023-04-22T15:25:49.501Z,32.25
2023-04-22T15:28:17.772Z,32.70
2023-04-22T15:30:46.155Z,32.66
2023-04-22T15:33:14.713Z,32.64
2023-04-22T15:35:45.604Z,32.37
2023-04-22T15:38:14.222Z,32.66
2023-04-22T15:40:42.627Z,32.82
2023-04-22T15:43:11.064Z,32.76
2023-04-22T15:45:39.254Z,32.71
2023-04-22T15:48:08.733Z,32.63
2023-04-22T15:50:38.864Z,32.59
2023-04-22T15:53:08.480Z,32.82
2023-04-22T15:55:38.207Z,33.17
2023-04-22T15:58:06.403Z,33.26
2023-04-22T16:00:34.738Z,33.53
2023-04-22T16:03:03.213Z,33.64
2023-04-22T16:05:35.564Z,33.65
2023-04-22T16:08:03.835Z,33.55
2023-04-22T16:10:31.950Z,33.74
2023-04-22T16:15:53.284Z,34.12
2023-04-22T16:18:27.707Z,34.38
2023-04-22T16:21:00.073Z,34.36
2023-04-22T16:23:28.139Z,34.39
2023-04-22T16:25:56.434Z,34.68
2023-04-22T16:28:25.455Z,34.52
2023-04-22T16:30:53.588Z,34.74
2023-04-22T16:33:34.010Z,34.71
2023-04-22T16:36:02.344Z,34.61
2023-04-22T16:38:30.672Z,34.52
2023-04-22T16:40:58.757Z,34.69
2023-04-22T16:43:26.867Z,34.79
2023-04-22T16:45:54.997Z,35.23
2023-04-22T16:48:23.101Z,35.54
2023-04-22T16:50:52.732Z,35.84
2023-04-22T16:53:20.994Z,35.91
2023-04-22T16:55:49.098Z,35.92
2023-04-22T16:58:17.182Z,35.98
2023-04-22T17:04:24.496Z,36.42
2023-04-22T17:06:53.049Z,36.46
2023-04-22T17:09:21.269Z,36.40
2023-04-22T17:11:49.409Z,36.50
2023-04-22T17:14:17.552Z,36.36
2023-04-22T17:16:45.679Z,36.42
2023-04-22T17:19:13.795Z,36.70
2023-04-22T17:21:41.913Z,37.11
2023-04-22T17:24:10.098Z,37.12
2023-04-22T17:26:39.737Z,37.18
2023-04-22T17:29:07.968Z,37.29
2023-04-22T17:31:36.188Z,37.44
2023-04-22T17:34:04.374Z,37.55
2023-04-22T17:36:32.491Z,37.79
2023-04-22T17:39:00.624Z,37.87
2023-04-22T17:41:28.809Z,38.03
2023-04-22T17:43:59.054Z,38.18
2023-04-22T17:46:27.415Z,38.27
2023-04-22T17:48:55.566Z,38.43
2023-04-22T17:51:23.695Z,38.46
2023-04-22T17:53:53.116Z,38.73
2023-04-22T17:56:21.762Z,38.85
2023-04-22T17:58:49.864Z,38.92
2023-04-22T18:01:18.109Z,39.17
2023-04-22T18:03:46.360Z,39.23
2023-04-22T18:06:14.865Z,39.39
2023-04-22T18:08:42.899Z,39.37
2023-04-22T18:11:11.342Z,39.86
2023-04-22T18:13:39.624Z,40.14
2023-04-22T18:16:08.098Z,40.43
2023-04-22T18:18:36.497Z,40.66
2023-04-22T18:21:04.693Z,41.00
2023-04-22T18:23:32.845Z,41.13
2023-04-22T18:26:01.221Z,41.33
2023-04-22T18:28:29.387Z,41.60
2023-04-22T18:30:57.525Z,41.68
2023-04-22T18:33:26.280Z,41.77
2023-04-22T18:35:54.406Z,42.09
2023-04-22T18:38:22.884Z,42.17
2023-04-22T18:40:51.008Z,42.30
2023-04-22T18:43:19.256Z,42.58
2023-04-22T18:49:49.149Z,42.82
2023-04-22T18:52:20.391Z,42.96
2023-04-22T18:54:56.211Z,43.15
2023-04-22T18:59:08.048Z,43.19
2023-04-22T19:01:28.064Z,43.31
2023-04-22T19:03:56.279Z,43.36
2023-04-22T19:06:24.555Z,43.62
2023-04-22T19:08:53.122Z,43.74
2023-04-22T19:11:21.383Z,43.89
2023-04-22T19:13:49.557Z,43.88
2023-04-22T19:16:17.785Z,44.09
2023-04-22T19:18:46.529Z,44.04
2023-04-22T19:21:15.663Z,44.21
2023-04-22T19:23:43.796Z,44.42
2023-04-22T19:26:14.458Z,44.69
2023-04-22T19:28:47.658Z,44.78
2023-04-22T19:31:19.745Z,45.01
2023-04-22T19:33:56.335Z,45.20
2023-04-22T19:36:24.765Z,45.44
2023-04-22T19:38:54.603Z,45.53
2023-04-22T19:41:24.169Z,45.42
2023-04-22T19:43:56.714Z,45.53
2023-04-22T19:46:26.001Z,45.51
2023-04-22T19:48:55.490Z,45.72
2023-04-22T19:51:24.522Z,45.58
2023-04-22T19:53:54.529Z,45.52
2023-04-22T19:56:22.967Z,45.65
2023-04-22T19:58:52.327Z,45.80
2023-04-22T20:01:21.323Z,45.92
2023-04-22T20:03:50.137Z,45.93
2023-04-22T20:06:18.387Z,45.85
2023-04-22T20:08:48.081Z,46.03
2023-04-22T20:11:16.753Z,46.03
2023-04-22T20:13:47.902Z,46.09
2023-04-22T20:16:16.639Z,46.21
2023-04-22T20:18:46.487Z,46.27
2023-04-22T20:21:16.749Z,46.34
2023-04-22T20:23:45.937Z,46.54
2023-04-22T20:26:20.895Z,46.61
2023-04-22T20:28:52.231Z,46.75
2023-04-22T20:31:23.442Z,46.78
2023-04-22T20:33:52.752Z,46.87
2023-04-22T20:36:22.687Z,47.03
2023-04-22T20:38:54.941Z,47.08
2023-04-22T20:41:24.775Z,47.28
2023-04-22T20:43:53.460Z,47.38
2023-04-22T20:46:23.801Z,47.59
2023-04-22T20:48:52.534Z,47.87
2023-04-22T20:51:20.799Z,47.96
2023-04-22T20:53:50.670Z,48.07
2023-04-22T20:56:21.562Z,48.07
2023-04-22T20:58:50.031Z,48.02
2023-04-22T21:01:21.760Z,48.17
2023-04-22T21:04:01.279Z,48.30
2023-04-22T21:06:48.817Z,48.50
2023-04-22T21:09:35.132Z,48.51
2023-04-22T21:12:18.476Z,48.83
2023-04-22T21:14:49.547Z,49.18
2023-04-22T21:17:31.024Z,49.16
2023-04-22T21:19:59.694Z,49.02
2023-04-22T21:22:29.888Z,49.40
2023-04-22T21:27:27.691Z,49.53
2023-04-22T21:29:57.108Z,49.31
2023-04-22T21:32:25.968Z,49.54
2023-04-22T21:34:54.271Z,49.69
2023-04-22T21:37:22.547Z,49.76
2023-04-22T21:39:50.726Z,50.08
2023-04-22T21:42:19.027Z,50.17
2023-04-22T21:44:49.944Z,50.18
2023-04-22T21:47:18.264Z,50.03
2023-04-22T21:49:47.212Z,50.16
2023-04-22T21:52:16.384Z,50.29
2023-04-22T21:54:44.521Z,50.32
2023-04-22T21:57:12.831Z,50.42
2023-04-22T21:59:40.933Z,50.57
2023-04-22T22:02:09.103Z,50.65
2023-04-22T22:04:37.550Z,50.66
2023-04-22T22:07:05.903Z,50.74
2023-04-22T22:09:34.023Z,50.84
2023-04-22T22:12:02.799Z,50.76
2023-04-22T22:14:31.149Z,50.88
2023-04-22T22:16:59.784Z,51.13
2023-04-22T22:19:28.489Z,51.36
2023-04-22T22:21:56.956Z,51.53
2023-04-22T22:24:25.525Z,51.62
2023-04-22T22:26:58.147Z,51.70
2023-04-22T22:29:28.770Z,51.75
2023-04-22T22:31:56.889Z,51.72
2023-04-22T22:34:29.702Z,51.92
2023-04-22T22:37:00.487Z,51.88
2023-04-22T22:39:28.616Z,51.93
2023-04-22T22:41:58.342Z,52.10
2023-04-22T22:44:27.503Z,51.91
2023-04-22T22:46:55.935Z,52.15
2023-04-22T22:49:24.589Z,52.31
2023-04-22T22:51:53.077Z,52.19
2023-04-22T22:54:21.303Z,52.09
2023-04-22T22:56:49.541Z,52.14
2023-04-22T22:59:17.715Z,52.22
2023-04-22T23:01:46.120Z,52.18
2023-04-22T23:04:15.936Z,52.27
2023-04-22T23:06:44.345Z,52.43
2023-04-22T23:09:12.408Z,52.47
2023-04-22T23:11:40.691Z,52.50
2023-04-22T23:14:09.740Z,52.49
2023-04-22T23:16:40.288Z,52.72
2023-04-22T23:19:08.592Z,52.65
2023-04-22T23:21:38.272Z,52.64
2023-04-22T23:24:08.667Z,52.49
2023-04-22T23:26:37.314Z,52.64
2023-04-22T23:29:06.748Z,52.73
2023-04-22T23:31:35.841Z,52.69
2023-04-22T23:34:05.878Z,52.76
2023-04-22T23:36:39.804Z,52.83
2023-04-22T23:39:09.821Z,52.74
2023-04-22T23:41:39.904Z,52.86
2023-04-22T23:44:13.347Z,52.84
2023-04-22T23:46:41.960Z,52.85
2023-04-22T23:49:15.594Z,52.93
2023-04-22T23:51:51.744Z,52.89
2023-04-22T23:54:22.152Z,52.99
2023-04-22T23:56:50.740Z,53.04
2023-04-22T23:59:22.433Z,53.16
